createdAt,value
2023-05-14T00:03:05.438Z,22.8
2023-05-14T00:08:50.430Z,23.5
2023-05-14T00:14:35.061Z,23.7
2023-05-14T00:20:19.980Z,23.5
2023-05-14T00:26:05.201Z,23.6
2023-05-14T00:31:50.194Z,23.5
2023-05-14T00:37:35.965Z,22.9
2023-05-14T00:43:20.617Z,23.4
2023-05-14T00:49:05.544Z,22.6
2023-05-14T00:54:50.954Z,23.3
2023-05-14T01:00:36.736Z,23.8
2023-05-14T01:06:28.985Z,23.1
2023-05-14T01:12:19.192Z,23.4
2023-05-14T01:18:07.236Z,24.9
2023-05-14T01:23:52.169Z,24.2
2023-05-14T01:29:39.211Z,24.9
2023-05-14T01:35:24.689Z,23.6
2023-05-14T01:41:09.593Z,24.7
2023-05-14T01:46:55.329Z,24
2023-05-14T01:52:40.988Z,24.9
2023-05-14T01:58:25.916Z,24.5
2023-05-14T02:04:10.957Z,25
2023-05-14T02:09:55.621Z,24.5
2023-05-14T02:15:40.283Z,25.4
2023-05-14T02:21:25.084Z,24.7
2023-05-14T02:27:09.880Z,26.5
2023-05-14T02:32:54.749Z,26.1
2023-05-14T02:38:39.681Z,26
2023-05-14T02:44:24.505Z,26.1
2023-05-14T02:50:09.973Z,26.3
2023-05-14T02:55:54.686Z,26.1
2023-05-14T03:01:40.576Z,26.3
2023-05-14T03:07:27.188Z,26.7
2023-05-14T03:13:12.103Z,26.1
2023-05-14T03:18:57.312Z,27.5
2023-05-14T03:24:42.529Z,26.3
2023-05-14T03:30:28.077Z,25.5
2023-05-14T03:36:12.948Z,24.5
2023-05-14T03:41:57.634Z,25
2023-05-14T03:47:44.054Z,25
2023-05-14T03:53:28.924Z,25.6
2023-05-14T03:59:13.633Z,26
2023-05-14T04:04:58.617Z,25.6
2023-05-14T04:10:44.738Z,24.7
2023-05-14T04:16:29.764Z,25.2
2023-05-14T04:22:14.668Z,24.7
2023-05-14T04:27:59.490Z,24.4
2023-05-14T04:33:46.906Z,24
2023-05-14T04:39:32.295Z,23.5
2023-05-14T04:45:18.061Z,22.6
2023-05-14T04:51:04.484Z,22.9
2023-05-14T04:56:51.075Z,22
2023-05-14T05:02:35.992Z,21.1
2023-05-14T05:08:20.790Z,21.9
2023-05-14T05:14:05.431Z,21.5
2023-05-14T05:19:50.165Z,20.8
2023-05-14T05:25:34.749Z,21.4
2023-05-14T05:31:22.144Z,21.5
2023-05-14T05:37:07.225Z,20.9
2023-05-14T05:42:52.001Z,20.8
2023-05-14T05:48:36.638Z,20.5
2023-05-14T05:54:22.353Z,20.4
2023-05-14T06:00:07.806Z,20.4
2023-05-14T06:05:53.120Z,19.6
2023-05-14T06:11:37.689Z,20
2023-05-14T06:17:22.476Z,20.3
2023-05-14T06:23:07.291Z,20.2
2023-05-14T06:28:51.923Z,21.6
2023-05-14T06:34:36.668Z,21.3
2023-05-14T06:40:21.784Z,19.7
2023-05-14T06:46:07.041Z,19
2023-05-14T06:51:51.678Z,19
2023-05-14T06:57:36.920Z,19
2023-05-14T07:03:24.361Z,19.5
2023-05-14T07:09:09.227Z,20
2023-05-14T07:14:54.742Z,21.7
2023-05-14T07:20:39.325Z,20.7
2023-05-14T07:26:24.172Z,20.8
2023-05-14T07:32:08.928Z,20.8
2023-05-14T07:37:53.767Z,20.3
2023-05-14T07:43:38.458Z,21
2023-05-14T07:49:23.220Z,22.1
2023-05-14T07:55:09.129Z,20.7
2023-05-14T08:00:53.861Z,21.2
2023-05-14T08:06:38.677Z,21
2023-05-14T08:12:23.524Z,21.9
2023-05-14T08:18:08.449Z,21.6
2023-05-14T08:23:53.353Z,21.7
2023-05-14T08:29:38.214Z,21.7
2023-05-14T08:35:23.171Z,21.5
2023-05-14T08:41:08.392Z,21.9
2023-05-14T08:46:53.476Z,21.5
2023-05-14T08:52:38.362Z,21.7
2023-05-14T08:58:23.149Z,22.9
2023-05-14T09:04:08.527Z,22.9
2023-05-14T09:09:53.713Z,24.3
2023-05-14T09:15:39.257Z,24.7
2023-05-14T09:21:24.352Z,26.1
2023-05-14T09:27:09.492Z,26
2023-05-14T09:32:55.992Z,26.4
2023-05-14T09:38:40.876Z,26.4
2023-05-14T09:44:25.711Z,26.3
2023-05-14T09:50:11.162Z,27.3
2023-05-14T09:55:55.886Z,26.2
2023-05-14T10:01:41.436Z,25.5
2023-05-14T10:07:31.793Z,24.2
2023-05-14T10:13:17.093Z,24
2023-05-14T10:19:03.839Z,23.1
2023-05-14T10:24:48.933Z,23
2023-05-14T10:30:34.117Z,22.2
2023-05-14T10:36:19.841Z,21.9
2023-05-14T10:42:04.698Z,20.9
2023-05-14T10:47:49.701Z,20.6
2023-05-14T10:53:41.305Z,20.4
2023-05-14T10:59:27.447Z,19
2023-05-14T11:05:13.080Z,18.5
2023-05-14T11:10:58.211Z,17.1
2023-05-14T11:16:42.950Z,16.2
2023-05-14T11:22:27.889Z,15.9
2023-05-14T11:28:12.744Z,15.2
2023-05-14T11:33:58.242Z,14.7
2023-05-14T11:39:47.894Z,14.3
2023-05-14T11:45:32.673Z,14.6
2023-05-14T11:51:17.460Z,13.1
2023-05-14T11:57:02.852Z,13.3
2023-05-14T12:02:50.428Z,13.2
2023-05-14T12:08:35.480Z,13.1
2023-05-14T12:14:21.706Z,12.9
2023-05-14T12:20:07.407Z,12.1
2023-05-14T12:25:58.401Z,12.3
2023-05-14T12:31:47.556Z,11.4
2023-05-14T12:37:33.569Z,11.7
2023-05-14T12:43:18.198Z,11.8
2023-05-14T12:49:03.094Z,10.7
2023-05-14T12:54:47.878Z,10.3
2023-05-14T13:00:32.761Z,10.1
2023-05-14T13:06:17.611Z,10
2023-05-14T13:12:02.316Z,9.7
2023-05-14T13:17:47.376Z,9.4
2023-05-14T13:23:32.195Z,9.9
2023-05-14T13:29:16.985Z,9
2023-05-14T13:35:01.739Z,9
2023-05-14T13:40:46.748Z,9.2
2023-05-14T13:46:31.752Z,8.9
2023-05-14T13:52:16.565Z,8.6
2023-05-14T13:58:03.454Z,8.8
2023-05-14T14:03:48.338Z,9.8
2023-05-14T14:09:33.127Z,8.9
2023-05-14T14:15:17.976Z,9.1
2023-05-14T14:21:02.685Z,9.1
2023-05-14T14:26:47.573Z,9.2
2023-05-14T14:32:32.248Z,9.4
2023-05-14T14:38:16.932Z,9.8
2023-05-14T14:44:01.714Z,9.7
2023-05-14T14:49:46.327Z,9.6
2023-05-14T14:55:31.380Z,14.2
2023-05-14T15:01:16.273Z,13.6
2023-05-14T15:07:02.135Z,12
2023-05-14T15:12:46.924Z,11.8
2023-05-14T15:18:31.869Z,12.2
2023-05-14T15:24:17.211Z,13.8
2023-05-14T15:30:02.853Z,12.9
2023-05-14T15:35:47.633Z,12
2023-05-14T15:41:32.487Z,11.7
2023-05-14T15:47:17.013Z,11.4
2023-05-14T15:53:02.601Z,11.6
2023-05-14T15:58:47.391Z,11
2023-05-14T16:04:32.173Z,10.8
2023-05-14T16:10:17.038Z,11.1
2023-05-14T16:16:01.970Z,10.3
2023-05-14T16:21:47.027Z,9.6
2023-05-14T16:27:31.934Z,9.3
2023-05-14T16:33:16.781Z,9.7
2023-05-14T16:39:09.516Z,9.2
2023-05-14T16:44:54.557Z,9.5
2023-05-14T16:50:39.090Z,8.8
2023-05-14T16:56:27.370Z,8.1
2023-05-14T17:02:11.896Z,8.4
2023-05-14T17:07:56.726Z,7.3
2023-05-14T17:13:41.433Z,7.1
2023-05-14T17:19:26.249Z,6.8
2023-05-14T17:25:11.649Z,7.1
2023-05-14T17:30:56.608Z,7.5
2023-05-14T17:36:41.522Z,7.3
2023-05-14T17:42:26.234Z,7.6
2023-05-14T17:48:11.328Z,8.1
2023-05-14T17:53:56.226Z,8.1
2023-05-14T17:59:40.976Z,8
2023-05-14T18:05:27.897Z,8.1
2023-05-14T18:11:12.987Z,8
2023-05-14T18:16:58.109Z,7
2023-05-14T18:22:42.970Z,6.9
2023-05-14T18:28:27.637Z,6.4
2023-05-14T18:34:12.349Z,6.6
2023-05-14T18:39:57.288Z,6.2
2023-05-14T18:45:42.246Z,5.8
2023-05-14T18:51:27.172Z,5.5
2023-05-14T18:57:13.036Z,5.3
2023-05-14T19:02:58.073Z,5.4
2023-05-14T19:08:43.115Z,5.4
2023-05-14T19:14:27.708Z,5.7
2023-05-14T19:20:13.257Z,5.1
2023-05-14T19:25:58.417Z,5.3
2023-05-14T19:31:43.605Z,5.4
2023-05-14T19:37:31.396Z,5.8
2023-05-14T19:43:16.310Z,5.9
2023-05-14T19:49:01.096Z,6.3
2023-05-14T19:54:45.970Z,6.5
2023-05-14T20:00:30.891Z,7.2
2023-05-14T20:06:15.802Z,7.4
2023-05-14T20:12:00.492Z,8.2
2023-05-14T20:17:45.395Z,8.1
2023-05-14T20:23:30.291Z,8.8
2023-05-14T20:29:14.949Z,9
2023-05-14T20:34:59.682Z,8.9
2023-05-14T20:40:44.397Z,9.5
2023-05-14T20:46:29.716Z,9.8
2023-05-14T20:52:14.380Z,9.6
2023-05-14T20:57:58.899Z,9.7
2023-05-14T21:03:44.453Z,10
2023-05-14T21:09:30.482Z,10.4
2023-05-14T21:15:15.670Z,9.4
2023-05-14T21:21:00.372Z,9.6
2023-05-14T21:26:45.353Z,10.3
2023-05-14T21:32:30.181Z,10
2023-05-14T21:38:14.858Z,10.4
2023-05-14T21:43:59.592Z,10.6
2023-05-14T21:49:44.582Z,10.6
2023-05-14T21:55:30.263Z,11.6
2023-05-14T22:01:15.122Z,10.7
2023-05-14T22:07:00.153Z,10.5
2023-05-14T22:12:45.695Z,10.4
2023-05-14T22:18:30.522Z,11.3
2023-05-14T22:24:15.220Z,11.4
2023-05-14T22:30:00.408Z,11.5
2023-05-14T22:35:45.292Z,11.8
2023-05-14T22:41:29.777Z,11.9
2023-05-14T22:47:14.758Z,12.1
2023-05-14T22:52:59.523Z,12.8
2023-05-14T22:58:44.186Z,12.3
2023-05-14T23:04:29.023Z,13
2023-05-14T23:10:14.196Z,13
2023-05-14T23:15:58.856Z,12.5
2023-05-14T23:21:44.393Z,12.2
2023-05-14T23:27:29.122Z,12.3
2023-05-14T23:33:13.975Z,12.4
2023-05-14T23:38:58.879Z,12
2023-05-14T23:44:43.593Z,11.4
2023-05-14T23:50:28.370Z,12
2023-05-14T23:56:13.736Z,11.6
